sensor_id;sensor_type;location;lat;lon;timestamp;P1;durP1;ratioP1;P2;durP2;ratioP2
74833;SDS011;63361;52.384;20.930;2023-05-24T00:01:33;11.00;;;5.87;;
74833;SDS011;63361;52.384;20.930;2023-05-24T00:03:58;11.03;;;5.90;;
74833;SDS011;63361;52.384;20.930;2023-05-24T00:06:24;12.73;;;6.23;;
74833;SDS011;63361;52.384;20.930;2023-05-24T00:08:51;10.15;;;5.97;;
74833;SDS011;63361;52.384;20.930;2023-05-24T00:11:16;17.20;;;5.93;;
74833;SDS011;63361;52.384;20.930;2023-05-24T00:13:41;10.10;;;6.03;;
74833;SDS011;63361;52.384;20.930;2023-05-24T00:16:06;9.73;;;6.30;;
74833;SDS011;63361;52.384;20.930;2023-05-24T00:18:32;10.77;;;5.93;;
74833;SDS011;63361;52.384;20.930;2023-05-24T00:20:57;12.30;;;6.37;;
74833;SDS011;63361;52.384;20.930;2023-05-24T00:23:23;9.23;;;5.73;;
74833;SDS011;63361;52.384;20.930;2023-05-24T00:25:49;12.52;;;5.78;;
74833;SDS011;63361;52.384;20.930;2023-05-24T00:28:15;9.70;;;5.78;;
74833;SDS011;63361;52.384;20.930;2023-05-24T00:30:40;9.57;;;6.13;;
74833;SDS011;63361;52.384;20.930;2023-05-24T00:33:05;9.67;;;5.90;;
74833;SDS011;63361;52.384;20.930;2023-05-24T00:35:30;14.40;;;6.60;;
74833;SDS011;63361;52.384;20.930;2023-05-24T00:37:55;9.67;;;6.27;;
74833;SDS011;63361;52.384;20.930;2023-05-24T00:40:21;10.30;;;5.90;;
74833;SDS011;63361;52.384;20.930;2023-05-24T00:42:46;10.73;;;6.43;;
74833;SDS011;63361;52.384;20.930;2023-05-24T00:45:11;11.90;;;6.63;;
74833;SDS011;63361;52.384;20.930;2023-05-24T00:47:36;11.17;;;6.27;;
74833;SDS011;63361;52.384;20.930;2023-05-24T00:50:02;13.40;;;6.20;;
74833;SDS011;63361;52.384;20.930;2023-05-24T00:52:27;10.87;;;6.33;;
74833;SDS011;63361;52.384;20.930;2023-05-24T00:54:52;10.37;;;6.07;;
74833;SDS011;63361;52.384;20.930;2023-05-24T00:57:18;13.97;;;6.80;;
74833;SDS011;63361;52.384;20.930;2023-05-24T00:59:43;13.07;;;6.30;;
74833;SDS011;63361;52.384;20.930;2023-05-24T01:02:09;10.03;;;6.37;;
74833;SDS011;63361;52.384;20.930;2023-05-24T01:04:35;10.90;;;6.32;;
74833;SDS011;63361;52.384;20.930;2023-05-24T01:07:04;10.07;;;5.90;;
74833;SDS011;63361;52.384;20.930;2023-05-24T01:09:40;11.13;;;6.77;;
74833;SDS011;63361;52.384;20.930;2023-05-24T01:15:15;9.63;;;6.50;;
74833;SDS011;63361;52.384;20.930;2023-05-24T01:17:47;12.77;;;6.82;;
74833;SDS011;63361;52.384;20.930;2023-05-24T01:20:16;12.57;;;6.40;;
74833;SDS011;63361;52.384;20.930;2023-05-24T01:25:26;9.40;;;6.13;;
74833;SDS011;63361;52.384;20.930;2023-05-24T01:27:55;9.38;;;6.32;;
74833;SDS011;63361;52.384;20.930;2023-05-24T01:30:22;9.97;;;6.77;;
74833;SDS011;63361;52.384;20.930;2023-05-24T01:32:47;11.37;;;7.20;;
74833;SDS011;63361;52.384;20.930;2023-05-24T01:35:12;10.98;;;6.22;;
74833;SDS011;63361;52.384;20.930;2023-05-24T01:37:38;13.47;;;6.77;;
74833;SDS011;63361;52.384;20.930;2023-05-24T01:40:03;11.40;;;7.73;;
74833;SDS011;63361;52.384;20.930;2023-05-24T01:52:40;14.23;;;6.17;;
74833;SDS011;63361;52.384;20.930;2023-05-24T01:55:08;11.45;;;6.85;;
74833;SDS011;63361;52.384;20.930;2023-05-24T01:57:33;10.80;;;6.53;;
74833;SDS011;63361;52.384;20.930;2023-05-24T01:59:59;12.63;;;6.50;;
74833;SDS011;63361;52.384;20.930;2023-05-24T02:02:25;10.30;;;6.18;;
74833;SDS011;63361;52.384;20.930;2023-05-24T02:04:51;10.43;;;6.50;;
74833;SDS011;63361;52.384;20.930;2023-05-24T02:07:16;11.60;;;6.50;;
74833;SDS011;63361;52.384;20.930;2023-05-24T02:09:41;9.57;;;6.47;;
74833;SDS011;63361;52.384;20.930;2023-05-24T02:12:07;9.63;;;6.10;;
74833;SDS011;63361;52.384;20.930;2023-05-24T02:14:32;10.77;;;6.82;;
74833;SDS011;63361;52.384;20.930;2023-05-24T02:16:57;9.27;;;6.57;;
74833;SDS011;63361;52.384;20.930;2023-05-24T02:19:23;10.90;;;6.50;;
74833;SDS011;63361;52.384;20.930;2023-05-24T02:21:48;9.93;;;6.27;;
74833;SDS011;63361;52.384;20.930;2023-05-24T02:24:13;10.00;;;6.47;;
74833;SDS011;63361;52.384;20.930;2023-05-24T02:26:38;11.17;;;5.97;;
74833;SDS011;63361;52.384;20.930;2023-05-24T02:29:04;10.03;;;6.37;;
74833;SDS011;63361;52.384;20.930;2023-05-24T02:31:29;10.63;;;6.03;;
74833;SDS011;63361;52.384;20.930;2023-05-24T02:33:55;11.37;;;6.57;;
74833;SDS011;63361;52.384;20.930;2023-05-24T02:36:20;11.27;;;6.83;;
74833;SDS011;63361;52.384;20.930;2023-05-24T02:38:47;11.85;;;6.32;;
74833;SDS011;63361;52.384;20.930;2023-05-24T02:41:12;11.63;;;6.60;;
74833;SDS011;63361;52.384;20.930;2023-05-24T02:43:41;12.13;;;6.60;;
74833;SDS011;63361;52.384;20.930;2023-05-24T02:46:07;9.37;;;6.70;;
74833;SDS011;63361;52.384;20.930;2023-05-24T02:48:32;10.57;;;6.50;;
74833;SDS011;63361;52.384;20.930;2023-05-24T02:50:57;10.60;;;6.53;;
74833;SDS011;63361;52.384;20.930;2023-05-24T02:53:22;11.53;;;6.80;;
74833;SDS011;63361;52.384;20.930;2023-05-24T02:55:47;10.27;;;6.40;;
74833;SDS011;63361;52.384;20.930;2023-05-24T02:58:13;14.80;;;6.77;;
74833;SDS011;63361;52.384;20.930;2023-05-24T03:00:38;10.18;;;6.05;;
74833;SDS011;63361;52.384;20.930;2023-05-24T03:03:04;10.37;;;6.93;;
74833;SDS011;63361;52.384;20.930;2023-05-24T03:05:29;10.47;;;6.53;;
74833;SDS011;63361;52.384;20.930;2023-05-24T03:07:54;10.13;;;6.50;;
74833;SDS011;63361;52.384;20.930;2023-05-24T03:10:20;11.05;;;7.03;;
74833;SDS011;63361;52.384;20.930;2023-05-24T03:12:45;10.70;;;6.37;;
74833;SDS011;63361;52.384;20.930;2023-05-24T03:15:11;13.17;;;6.40;;
74833;SDS011;63361;52.384;20.930;2023-05-24T03:17:36;10.57;;;7.00;;
74833;SDS011;63361;52.384;20.930;2023-05-24T03:20:01;12.23;;;6.43;;
74833;SDS011;63361;52.384;20.930;2023-05-24T03:22:26;10.73;;;7.03;;
74833;SDS011;63361;52.384;20.930;2023-05-24T03:24:51;12.13;;;6.43;;
74833;SDS011;63361;52.384;20.930;2023-05-24T03:27:17;12.27;;;7.10;;
74833;SDS011;63361;52.384;20.930;2023-05-24T03:29:42;12.20;;;7.07;;
74833;SDS011;63361;52.384;20.930;2023-05-24T03:32:07;10.77;;;6.47;;
74833;SDS011;63361;52.384;20.930;2023-05-24T03:34:32;11.33;;;6.43;;
74833;SDS011;63361;52.384;20.930;2023-05-24T03:36:57;11.27;;;6.77;;
74833;SDS011;63361;52.384;20.930;2023-05-24T03:39:23;10.47;;;6.77;;
74833;SDS011;63361;52.384;20.930;2023-05-24T03:41:48;11.37;;;6.40;;
74833;SDS011;63361;52.384;20.930;2023-05-24T03:44:13;10.27;;;6.23;;
74833;SDS011;63361;52.384;20.930;2023-05-24T03:46:38;11.70;;;6.50;;
74833;SDS011;63361;52.384;20.930;2023-05-24T03:49:03;12.17;;;6.47;;
74833;SDS011;63361;52.384;20.930;2023-05-24T03:51:29;11.80;;;6.87;;
74833;SDS011;63361;52.384;20.930;2023-05-24T03:53:55;9.60;;;6.63;;
74833;SDS011;63361;52.384;20.930;2023-05-24T03:56:21;10.25;;;6.53;;
74833;SDS011;63361;52.384;20.930;2023-05-24T03:58:46;12.20;;;6.57;;
74833;SDS011;63361;52.384;20.930;2023-05-24T04:01:11;12.03;;;6.03;;
74833;SDS011;63361;52.384;20.930;2023-05-24T04:03:36;9.47;;;6.00;;
74833;SDS011;63361;52.384;20.930;2023-05-24T04:06:02;11.80;;;6.32;;
74833;SDS011;63361;52.384;20.930;2023-05-24T04:08:28;10.27;;;6.27;;
74833;SDS011;63361;52.384;20.930;2023-05-24T04:10:53;8.63;;;5.23;;
74833;SDS011;63361;52.384;20.930;2023-05-24T04:13:18;12.00;;;6.23;;
74833;SDS011;63361;52.384;20.930;2023-05-24T04:15:43;12.23;;;6.22;;
74833;SDS011;63361;52.384;20.930;2023-05-24T04:18:09;11.70;;;7.30;;
74833;SDS011;63361;52.384;20.930;2023-05-24T04:20:35;10.65;;;6.40;;
74833;SDS011;63361;52.384;20.930;2023-05-24T04:23:01;10.33;;;6.60;;
74833;SDS011;63361;52.384;20.930;2023-05-24T04:25:26;9.00;;;5.60;;
74833;SDS011;63361;52.384;20.930;2023-05-24T04:27:51;10.97;;;6.20;;
74833;SDS011;63361;52.384;20.930;2023-05-24T04:30:17;9.60;;;5.80;;
74833;SDS011;63361;52.384;20.930;2023-05-24T04:32:42;10.43;;;6.20;;
74833;SDS011;63361;52.384;20.930;2023-05-24T04:35:11;9.75;;;6.03;;
74833;SDS011;63361;52.384;20.930;2023-05-24T04:37:36;12.03;;;5.97;;
74833;SDS011;63361;52.384;20.930;2023-05-24T04:40:02;12.17;;;5.67;;
74833;SDS011;63361;52.384;20.930;2023-05-24T04:42:30;12.33;;;6.37;;
74833;SDS011;63361;52.384;20.930;2023-05-24T04:44:58;11.00;;;5.80;;
74833;SDS011;63361;52.384;20.930;2023-05-24T04:47:24;8.80;;;6.00;;
74833;SDS011;63361;52.384;20.930;2023-05-24T04:49:49;8.60;;;5.38;;
74833;SDS011;63361;52.384;20.930;2023-05-24T04:52:14;11.90;;;7.03;;
74833;SDS011;63361;52.384;20.930;2023-05-24T04:54:40;11.30;;;6.30;;
74833;SDS011;63361;52.384;20.930;2023-05-24T04:57:05;8.30;;;5.60;;
74833;SDS011;63361;52.384;20.930;2023-05-24T04:59:30;9.33;;;5.97;;
74833;SDS011;63361;52.384;20.930;2023-05-24T05:01:55;9.57;;;5.93;;
74833;SDS011;63361;52.384;20.930;2023-05-24T05:04:21;13.40;;;5.70;;
74833;SDS011;63361;52.384;20.930;2023-05-24T05:06:46;9.23;;;5.63;;
74833;SDS011;63361;52.384;20.930;2023-05-24T05:09:12;10.73;;;6.37;;
74833;SDS011;63361;52.384;20.930;2023-05-24T05:11:38;9.73;;;5.78;;
74833;SDS011;63361;52.384;20.930;2023-05-24T05:14:03;10.70;;;6.43;;
74833;SDS011;63361;52.384;20.930;2023-05-24T05:16:28;11.93;;;6.03;;
74833;SDS011;63361;52.384;20.930;2023-05-24T05:18:54;11.30;;;5.50;;
74833;SDS011;63361;52.384;20.930;2023-05-24T05:21:19;10.87;;;5.87;;
74833;SDS011;63361;52.384;20.930;2023-05-24T05:23:44;10.13;;;5.90;;
74833;SDS011;63361;52.384;20.930;2023-05-24T05:26:10;12.97;;;5.27;;
74833;SDS011;63361;52.384;20.930;2023-05-24T05:28:35;9.10;;;5.30;;
74833;SDS011;63361;52.384;20.930;2023-05-24T05:31:00;9.60;;;6.03;;
74833;SDS011;63361;52.384;20.930;2023-05-24T05:33:25;9.57;;;5.17;;
74833;SDS011;63361;52.384;20.930;2023-05-24T05:35:51;8.87;;;5.67;;
74833;SDS011;63361;52.384;20.930;2023-05-24T05:38:16;10.53;;;5.70;;
74833;SDS011;63361;52.384;20.930;2023-05-24T05:40:41;9.70;;;5.30;;
74833;SDS011;63361;52.384;20.930;2023-05-24T05:43:06;11.13;;;5.17;;
74833;SDS011;63361;52.384;20.930;2023-05-24T05:45:35;10.30;;;5.53;;
74833;SDS011;63361;52.384;20.930;2023-05-24T05:48:00;11.87;;;5.10;;
74833;SDS011;63361;52.384;20.930;2023-05-24T05:50:25;9.13;;;5.30;;
74833;SDS011;63361;52.384;20.930;2023-05-24T05:52:50;8.27;;;5.43;;
74833;SDS011;63361;52.384;20.930;2023-05-24T05:55:15;9.30;;;5.47;;
74833;SDS011;63361;52.384;20.930;2023-05-24T05:57:41;9.23;;;5.23;;
74833;SDS011;63361;52.384;20.930;2023-05-24T06:00:07;8.73;;;5.15;;
74833;SDS011;63361;52.384;20.930;2023-05-24T06:02:32;8.50;;;5.57;;
74833;SDS011;63361;52.384;20.930;2023-05-24T06:04:57;11.70;;;5.47;;
74833;SDS011;63361;52.384;20.930;2023-05-24T06:07:23;11.45;;;5.80;;
74833;SDS011;63361;52.384;20.930;2023-05-24T06:09:49;8.23;;;5.40;;
74833;SDS011;63361;52.384;20.930;2023-05-24T06:12:14;8.27;;;5.40;;
74833;SDS011;63361;52.384;20.930;2023-05-24T06:14:39;8.77;;;5.40;;
74833;SDS011;63361;52.384;20.930;2023-05-24T06:17:05;7.70;;;5.10;;
74833;SDS011;63361;52.384;20.930;2023-05-24T06:19:30;9.52;;;5.43;;
74833;SDS011;63361;52.384;20.930;2023-05-24T06:21:56;12.68;;;5.60;;
74833;SDS011;63361;52.384;20.930;2023-05-24T06:24:21;10.47;;;4.80;;
74833;SDS011;63361;52.384;20.930;2023-05-24T06:26:47;10.07;;;5.37;;
74833;SDS011;63361;52.384;20.930;2023-05-24T06:29:13;9.27;;;4.55;;
74833;SDS011;63361;52.384;20.930;2023-05-24T06:31:38;7.20;;;4.80;;
74833;SDS011;63361;52.384;20.930;2023-05-24T06:34:03;9.80;;;4.70;;
74833;SDS011;63361;52.384;20.930;2023-05-24T06:36:29;9.57;;;4.70;;
74833;SDS011;63361;52.384;20.930;2023-05-24T06:38:54;9.38;;;4.70;;
74833;SDS011;63361;52.384;20.930;2023-05-24T06:41:20;10.17;;;5.33;;
74833;SDS011;63361;52.384;20.930;2023-05-24T06:43:45;9.10;;;5.00;;
74833;SDS011;63361;52.384;20.930;2023-05-24T06:46:10;10.03;;;4.73;;
74833;SDS011;63361;52.384;20.930;2023-05-24T06:48:35;7.60;;;4.50;;
74833;SDS011;63361;52.384;20.930;2023-05-24T06:51:01;7.90;;;4.40;;
74833;SDS011;63361;52.384;20.930;2023-05-24T06:53:26;6.93;;;4.50;;
74833;SDS011;63361;52.384;20.930;2023-05-24T06:55:51;7.80;;;4.20;;
74833;SDS011;63361;52.384;20.930;2023-05-24T06:58:16;10.70;;;4.50;;
74833;SDS011;63361;52.384;20.930;2023-05-24T07:00:41;8.40;;;4.33;;
74833;SDS011;63361;52.384;20.930;2023-05-24T07:03:07;9.20;;;4.40;;
74833;SDS011;63361;52.384;20.930;2023-05-24T07:05:33;7.03;;;4.38;;
74833;SDS011;63361;52.384;20.930;2023-05-24T07:07:58;7.87;;;4.20;;
74833;SDS011;63361;52.384;20.930;2023-05-24T07:10:24;7.00;;;4.13;;
74833;SDS011;63361;52.384;20.930;2023-05-24T07:12:49;7.87;;;4.00;;
74833;SDS011;63361;52.384;20.930;2023-05-24T07:15:14;7.20;;;4.03;;
74833;SDS011;63361;52.384;20.930;2023-05-24T07:17:39;7.50;;;4.35;;
74833;SDS011;63361;52.384;20.930;2023-05-24T07:20:05;8.73;;;4.47;;
74833;SDS011;63361;52.384;20.930;2023-05-24T07:22:34;9.60;;;4.10;;
74833;SDS011;63361;52.384;20.930;2023-05-24T07:24:59;11.75;;;4.32;;
74833;SDS011;63361;52.384;20.930;2023-05-24T07:27:25;7.87;;;4.20;;
74833;SDS011;63361;52.384;20.930;2023-05-24T07:29:50;7.30;;;4.50;;
74833;SDS011;63361;52.384;20.930;2023-05-24T07:32:16;8.47;;;4.50;;
74833;SDS011;63361;52.384;20.930;2023-05-24T07:34:41;7.30;;;4.05;;
74833;SDS011;63361;52.384;20.930;2023-05-24T07:37:07;10.93;;;4.40;;
74833;SDS011;63361;52.384;20.930;2023-05-24T07:39:32;8.87;;;4.10;;
74833;SDS011;63361;52.384;20.930;2023-05-24T07:41:58;7.63;;;4.43;;
74833;SDS011;63361;52.384;20.930;2023-05-24T07:44:23;10.57;;;4.70;;
74833;SDS011;63361;52.384;20.930;2023-05-24T07:46:48;7.03;;;4.10;;
74833;SDS011;63361;52.384;20.930;2023-05-24T07:49:13;11.40;;;4.73;;
74833;SDS011;63361;52.384;20.930;2023-05-24T07:51:39;8.40;;;4.73;;
74833;SDS011;63361;52.384;20.930;2023-05-24T07:54:04;7.67;;;4.30;;
74833;SDS011;63361;52.384;20.930;2023-05-24T07:56:29;10.03;;;4.30;;
74833;SDS011;63361;52.384;20.930;2023-05-24T07:58:56;7.65;;;4.00;;
74833;SDS011;63361;52.384;20.930;2023-05-24T08:01:27;12.57;;;4.25;;
74833;SDS011;63361;52.384;20.930;2023-05-24T08:03:52;8.83;;;4.33;;
74833;SDS011;63361;52.384;20.930;2023-05-24T08:06:18;8.60;;;4.33;;
74833;SDS011;63361;52.384;20.930;2023-05-24T08:08:43;8.03;;;4.13;;
74833;SDS011;63361;52.384;20.930;2023-05-24T08:11:09;10.73;;;4.50;;
74833;SDS011;63361;52.384;20.930;2023-05-24T08:13:35;9.83;;;4.10;;
74833;SDS011;63361;52.384;20.930;2023-05-24T08:16:00;7.87;;;4.03;;
74833;SDS011;63361;52.384;20.930;2023-05-24T08:18:25;8.37;;;3.97;;
74833;SDS011;63361;52.384;20.930;2023-05-24T08:20:50;6.17;;;3.90;;
74833;SDS011;63361;52.384;20.930;2023-05-24T08:23:15;8.23;;;3.73;;
74833;SDS011;63361;52.384;20.930;2023-05-24T08:25:41;10.40;;;3.93;;
74833;SDS011;63361;52.384;20.930;2023-05-24T08:28:06;6.23;;;3.60;;
74833;SDS011;63361;52.384;20.930;2023-05-24T08:30:32;8.85;;;3.40;;
74833;SDS011;63361;52.384;20.930;2023-05-24T08:32:57;8.40;;;4.00;;
74833;SDS011;63361;52.384;20.930;2023-05-24T08:35:22;8.87;;;3.80;;
74833;SDS011;63361;52.384;20.930;2023-05-24T08:37:48;8.23;;;3.70;;
74833;SDS011;63361;52.384;20.930;2023-05-24T08:40:13;9.88;;;3.53;;
74833;SDS011;63361;52.384;20.930;2023-05-24T08:42:39;8.33;;;3.70;;
74833;SDS011;63361;52.384;20.930;2023-05-24T08:45:10;9.00;;;3.87;;
74833;SDS011;63361;52.384;20.930;2023-05-24T08:47:35;7.65;;;3.63;;
74833;SDS011;63361;52.384;20.930;2023-05-24T08:50:01;10.80;;;3.97;;
74833;SDS011;63361;52.384;20.930;2023-05-24T08:52:26;8.40;;;3.60;;
74833;SDS011;63361;52.384;20.930;2023-05-24T08:54:53;6.38;;;3.80;;
74833;SDS011;63361;52.384;20.930;2023-05-24T08:57:18;9.37;;;3.80;;
74833;SDS011;63361;52.384;20.930;2023-05-24T08:59:44;8.20;;;3.57;;
74833;SDS011;63361;52.384;20.930;2023-05-24T09:02:10;7.77;;;3.60;;
74833;SDS011;63361;52.384;20.930;2023-05-24T09:04:38;9.63;;;3.72;;
74833;SDS011;63361;52.384;20.930;2023-05-24T09:07:04;7.40;;;3.78;;
74833;SDS011;63361;52.384;20.930;2023-05-24T09:09:30;7.43;;;3.60;;
74833;SDS011;63361;52.384;20.930;2023-05-24T09:11:57;7.45;;;3.55;;
74833;SDS011;63361;52.384;20.930;2023-05-24T09:14:24;8.67;;;3.30;;
74833;SDS011;63361;52.384;20.930;2023-05-24T09:16:49;8.40;;;3.60;;
74833;SDS011;63361;52.384;20.930;2023-05-24T09:19:15;6.23;;;3.57;;
74833;SDS011;63361;52.384;20.930;2023-05-24T09:21:40;7.93;;;3.43;;
74833;SDS011;63361;52.384;20.930;2023-05-24T09:24:07;7.23;;;3.90;;
74833;SDS011;63361;52.384;20.930;2023-05-24T09:26:34;7.05;;;3.83;;
74833;SDS011;63361;52.384;20.930;2023-05-24T09:28:59;6.70;;;3.67;;
74833;SDS011;63361;52.384;20.930;2023-05-24T09:31:31;8.83;;;3.57;;
74833;SDS011;63361;52.384;20.930;2023-05-24T09:33:57;11.57;;;3.72;;
74833;SDS011;63361;52.384;20.930;2023-05-24T09:36:22;9.00;;;4.00;;
74833;SDS011;63361;52.384;20.930;2023-05-24T09:38:47;8.80;;;3.30;;
74833;SDS011;63361;52.384;20.930;2023-05-24T09:41:14;9.13;;;3.80;;
74833;SDS011;63361;52.384;20.930;2023-05-24T09:43:46;9.50;;;4.00;;
74833;SDS011;63361;52.384;20.930;2023-05-24T09:46:15;8.15;;;3.58;;
74833;SDS011;63361;52.384;20.930;2023-05-24T09:48:40;7.13;;;3.08;;
74833;SDS011;63361;52.384;20.930;2023-05-24T09:51:19;5.68;;;3.50;;
74833;SDS011;63361;52.384;20.930;2023-05-24T09:53:45;7.07;;;3.50;;
74833;SDS011;63361;52.384;20.930;2023-05-24T09:56:12;9.23;;;3.83;;
74833;SDS011;63361;52.384;20.930;2023-05-24T09:58:37;9.17;;;3.90;;
74833;SDS011;63361;52.384;20.930;2023-05-24T10:01:03;6.90;;;3.80;;
74833;SDS011;63361;52.384;20.930;2023-05-24T10:03:30;12.82;;;4.40;;
74833;SDS011;63361;52.384;20.930;2023-05-24T10:05:55;9.17;;;4.17;;
74833;SDS011;63361;52.384;20.930;2023-05-24T10:08:21;8.97;;;4.00;;
74833;SDS011;63361;52.384;20.930;2023-05-24T10:10:46;8.00;;;3.77;;
74833;SDS011;63361;52.384;20.930;2023-05-24T10:13:11;9.33;;;4.20;;
74833;SDS011;63361;52.384;20.930;2023-05-24T10:15:36;13.53;;;4.27;;
74833;SDS011;63361;52.384;20.930;2023-05-24T10:18:02;11.17;;;4.27;;
74833;SDS011;63361;52.384;20.930;2023-05-24T10:20:32;8.63;;;3.80;;
74833;SDS011;63361;52.384;20.930;2023-05-24T10:23:02;9.27;;;4.00;;
74833;SDS011;63361;52.384;20.930;2023-05-24T10:25:28;9.32;;;4.10;;
74833;SDS011;63361;52.384;20.930;2023-05-24T10:27:54;8.15;;;3.95;;
74833;SDS011;63361;52.384;20.930;2023-05-24T10:30:33;7.45;;;4.05;;
74833;SDS011;63361;52.384;20.930;2023-05-24T10:33:01;6.60;;;3.90;;
74833;SDS011;63361;52.384;20.930;2023-05-24T10:35:28;6.85;;;3.70;;
74833;SDS011;63361;52.384;20.930;2023-05-24T10:37:54;8.50;;;4.07;;
74833;SDS011;63361;52.384;20.930;2023-05-24T10:40:20;10.33;;;3.97;;
74833;SDS011;63361;52.384;20.930;2023-05-24T10:42:46;9.32;;;3.83;;
74833;SDS011;63361;52.384;20.930;2023-05-24T10:47:49;7.22;;;3.80;;
74833;SDS011;63361;52.384;20.930;2023-05-24T10:50:18;14.50;;;5.47;;
74833;SDS011;63361;52.384;20.930;2023-05-24T10:52:43;14.57;;;4.85;;
74833;SDS011;63361;52.384;20.930;2023-05-24T10:55:09;8.23;;;4.57;;
74833;SDS011;63361;52.384;20.930;2023-05-24T10:57:34;11.53;;;4.40;;
74833;SDS011;63361;52.384;20.930;2023-05-24T11:02:47;14.65;;;4.97;;
74833;SDS011;63361;52.384;20.930;2023-05-24T11:05:12;13.95;;;5.50;;
74833;SDS011;63361;52.384;20.930;2023-05-24T11:07:41;11.03;;;5.20;;
74833;SDS011;63361;52.384;20.930;2023-05-24T11:10:13;11.00;;;4.88;;
74833;SDS011;63361;52.384;20.930;2023-05-24T11:12:39;9.27;;;4.65;;
74833;SDS011;63361;52.384;20.930;2023-05-24T11:15:06;12.68;;;4.90;;
74833;SDS011;63361;52.384;20.930;2023-05-24T11:17:32;12.00;;;4.93;;
74833;SDS011;63361;52.384;20.930;2023-05-24T11:20:17;9.87;;;5.30;;
74833;SDS011;63361;52.384;20.930;2023-05-24T11:22:43;10.13;;;4.88;;
74833;SDS011;63361;52.384;20.930;2023-05-24T11:25:09;13.03;;;5.00;;
74833;SDS011;63361;52.384;20.930;2023-05-24T11:27:34;10.13;;;5.30;;
74833;SDS011;63361;52.384;20.930;2023-05-24T11:30:05;12.27;;;4.70;;
74833;SDS011;63361;52.384;20.930;2023-05-24T11:32:31;10.25;;;4.57;;
74833;SDS011;63361;52.384;20.930;2023-05-24T11:34:57;13.07;;;5.40;;
74833;SDS011;63361;52.384;20.930;2023-05-24T11:37:22;15.67;;;5.53;;
74833;SDS011;63361;52.384;20.930;2023-05-24T11:39:49;11.13;;;5.03;;
74833;SDS011;63361;52.384;20.930;2023-05-24T11:42:15;12.68;;;5.32;;
74833;SDS011;63361;52.384;20.930;2023-05-24T11:44:41;9.87;;;5.10;;
74833;SDS011;63361;52.384;20.930;2023-05-24T11:47:06;8.70;;;4.83;;
74833;SDS011;63361;52.384;20.930;2023-05-24T11:49:32;11.27;;;5.53;;
74833;SDS011;63361;52.384;20.930;2023-05-24T11:51:57;10.07;;;5.23;;
74833;SDS011;63361;52.384;20.930;2023-05-24T11:54:23;10.45;;;4.90;;
74833;SDS011;63361;52.384;20.930;2023-05-24T11:56:48;8.10;;;5.47;;
74833;SDS011;63361;52.384;20.930;2023-05-24T12:01:46;10.20;;;4.60;;
74833;SDS011;63361;52.384;20.930;2023-05-24T12:04:12;9.40;;;4.80;;
74833;SDS011;63361;52.384;20.930;2023-05-24T12:06:40;9.50;;;5.30;;
74833;SDS011;63361;52.384;20.930;2023-05-24T12:09:07;9.57;;;5.25;;
74833;SDS011;63361;52.384;20.930;2023-05-24T12:11:33;10.15;;;5.60;;
74833;SDS011;63361;52.384;20.930;2023-05-24T12:13:59;13.33;;;4.90;;
74833;SDS011;63361;52.384;20.930;2023-05-24T12:16:25;9.17;;;5.07;;
74833;SDS011;63361;52.384;20.930;2023-05-24T12:18:51;12.73;;;5.17;;
74833;SDS011;63361;52.384;20.930;2023-05-24T12:21:16;10.25;;;4.93;;
74833;SDS011;63361;52.384;20.930;2023-05-24T12:23:42;12.07;;;5.15;;
74833;SDS011;63361;52.384;20.930;2023-05-24T12:26:07;10.80;;;4.70;;
74833;SDS011;63361;52.384;20.930;2023-05-24T12:28:33;10.10;;;5.03;;
74833;SDS011;63361;52.384;20.930;2023-05-24T12:31:02;10.60;;;4.50;;
74833;SDS011;63361;52.384;20.930;2023-05-24T12:33:28;13.30;;;4.63;;
74833;SDS011;63361;52.384;20.930;2023-05-24T12:35:53;9.20;;;5.03;;
74833;SDS011;63361;52.384;20.930;2023-05-24T12:38:18;9.43;;;4.80;;
74833;SDS011;63361;52.384;20.930;2023-05-24T12:40:49;10.75;;;4.82;;
74833;SDS011;63361;52.384;20.930;2023-05-24T12:43:14;8.70;;;4.60;;
74833;SDS011;63361;52.384;20.930;2023-05-24T12:45:40;11.68;;;4.75;;
74833;SDS011;63361;52.384;20.930;2023-05-24T12:48:05;10.43;;;4.87;;
74833;SDS011;63361;52.384;20.930;2023-05-24T12:50:31;9.37;;;4.53;;
74833;SDS011;63361;52.384;20.930;2023-05-24T12:52:56;10.77;;;5.13;;
74833;SDS011;63361;52.384;20.930;2023-05-24T12:55:23;10.50;;;4.73;;
74833;SDS011;63361;52.384;20.930;2023-05-24T12:57:49;8.75;;;4.90;;
74833;SDS011;63361;52.384;20.930;2023-05-24T13:00:22;9.17;;;4.93;;
74833;SDS011;63361;52.384;20.930;2023-05-24T13:02:47;8.63;;;5.03;;
74833;SDS011;63361;52.384;20.930;2023-05-24T13:05:13;9.67;;;5.20;;
74833;SDS011;63361;52.384;20.930;2023-05-24T13:07:38;8.43;;;4.70;;
74833;SDS011;63361;52.384;20.930;2023-05-24T13:10:04;9.60;;;5.05;;
74833;SDS011;63361;52.384;20.930;2023-05-24T13:12:30;9.80;;;5.30;;
74833;SDS011;63361;52.384;20.930;2023-05-24T13:14:55;10.40;;;5.13;;
74833;SDS011;63361;52.384;20.930;2023-05-24T13:17:21;10.50;;;5.10;;
74833;SDS011;63361;52.384;20.930;2023-05-24T13:19:46;11.47;;;5.37;;
74833;SDS011;63361;52.384;20.930;2023-05-24T13:22:11;9.47;;;4.90;;
74833;SDS011;63361;52.384;20.930;2023-05-24T13:24:37;13.40;;;5.60;;
74833;SDS011;63361;52.384;20.930;2023-05-24T13:27:02;8.70;;;5.47;;
74833;SDS011;63361;52.384;20.930;2023-05-24T13:29:27;9.23;;;4.80;;
74833;SDS011;63361;52.384;20.930;2023-05-24T13:31:52;13.50;;;5.20;;
74833;SDS011;63361;52.384;20.930;2023-05-24T13:34:18;15.60;;;5.90;;
74833;SDS011;63361;52.384;20.930;2023-05-24T13:36:43;9.63;;;5.38;;
74833;SDS011;63361;52.384;20.930;2023-05-24T13:39:09;8.70;;;4.70;;
74833;SDS011;63361;52.384;20.930;2023-05-24T13:41:34;7.60;;;4.50;;
74833;SDS011;63361;52.384;20.930;2023-05-24T13:44:00;8.03;;;4.67;;
74833;SDS011;63361;52.384;20.930;2023-05-24T13:46:26;10.00;;;5.00;;
74833;SDS011;63361;52.384;20.930;2023-05-24T13:48:52;11.13;;;4.78;;
74833;SDS011;63361;52.384;20.930;2023-05-24T13:51:17;8.13;;;4.70;;
74833;SDS011;63361;52.384;20.930;2023-05-24T13:53:43;12.07;;;4.95;;
74833;SDS011;63361;52.384;20.930;2023-05-24T13:56:08;7.97;;;4.53;;
74833;SDS011;63361;52.384;20.930;2023-05-24T13:58:34;12.07;;;4.70;;
74833;SDS011;63361;52.384;20.930;2023-05-24T14:00:59;8.63;;;4.33;;
74833;SDS011;63361;52.384;20.930;2023-05-24T14:03:24;13.13;;;4.83;;
74833;SDS011;63361;52.384;20.930;2023-05-24T14:05:50;14.83;;;4.63;;
74833;SDS011;63361;52.384;20.930;2023-05-24T14:08:15;9.00;;;4.53;;
74833;SDS011;63361;52.384;20.930;2023-05-24T14:10:40;10.80;;;4.90;;
74833;SDS011;63361;52.384;20.930;2023-05-24T14:13:05;8.93;;;4.57;;
74833;SDS011;63361;52.384;20.930;2023-05-24T14:15:31;11.10;;;5.05;;
74833;SDS011;63361;52.384;20.930;2023-05-24T14:17:57;8.82;;;4.40;;
74833;SDS011;63361;52.384;20.930;2023-05-24T14:20:24;10.90;;;4.68;;
74833;SDS011;63361;52.384;20.930;2023-05-24T14:22:49;9.23;;;4.50;;
74833;SDS011;63361;52.384;20.930;2023-05-24T14:25:15;8.77;;;4.23;;
74833;SDS011;63361;52.384;20.930;2023-05-24T14:27:40;12.23;;;4.57;;
74833;SDS011;63361;52.384;20.930;2023-05-24T14:30:08;11.50;;;5.28;;
74833;SDS011;63361;52.384;20.930;2023-05-24T14:32:33;10.33;;;4.50;;
74833;SDS011;63361;52.384;20.930;2023-05-24T14:34:58;12.07;;;4.53;;
74833;SDS011;63361;52.384;20.930;2023-05-24T14:37:24;11.10;;;4.80;;
74833;SDS011;63361;52.384;20.930;2023-05-24T14:39:49;10.93;;;4.90;;
74833;SDS011;63361;52.384;20.930;2023-05-24T14:42:14;12.43;;;4.77;;
74833;SDS011;63361;52.384;20.930;2023-05-24T14:44:39;9.57;;;5.07;;